Time;durP1;ratioP1;P1;durP2;ratioP2;P2;SDS_P1;SDS_P2;PMS_P1;PMS_P2;Temp;Humidity;BMP_temperature;BMP_pressure;BME280_temperature;BME280_humidity;BME280_pressure;Samples;Min_cycle;Max_cycle;Signal;HPM_P1;HPM_P2
2023/03/28 00:00:32;;;;;;;;;;;;;;;19.53;58.26;98723.22;2074809;28;20643;-53
2023/03/28 00:01:33;;;;;;;;;;;;;;;19.52;58.19;98727.78;2080598;28;19928;-57
2023/03/28 00:02:34;;;;;;;;;;;;;;;19.52;58.51;98725.09;2080623;28;19970;-53
2023/03/28 00:03:38;;;;;;;;;;;;;;;19.52;58.04;98721.56;2076755;28;19928;-57
2023/03/28 00:04:40;;;;;;;;;;;;;;;19.52;58.35;98729.66;2075765;28;19928;-56
2023/03/28 00:05:40;;;;;;;;;;;;;;;19.50;57.95;98727.19;2080727;28;19928;-58
2023/03/28 00:06:44;;;;;;;;;;;;;;;19.49;58.44;98725.50;2077779;28;20505;-58
2023/03/28 00:07:44;;;;;;;;;;;;;;;19.50;58.17;98731.69;2079558;28;19993;-55
2023/03/28 00:08:46;;;;;;;;;;;;;;;19.50;58.54;98726.31;2081963;28;19990;-58
2023/03/28 00:09:47;;;;;;;;;;;;;;;19.49;58.35;98736.25;2080786;28;19925;-56
2023/03/28 00:10:49;;;;;;;;;;;;;;;19.48;58.40;98739.19;2080124;28;22576;-53
2023/03/28 00:11:49;;;;;;;;;;;;;;;19.47;58.35;98732.13;2076353;27;19982;-54
2023/03/28 00:12:51;;;;;;;;;;;;;;;19.47;57.92;98742.88;2080029;28;21537;-55
2023/03/28 00:13:56;;;;;;;;;;;;;;;19.48;58.19;98728.41;2082508;28;19924;-54
2023/03/28 00:14:56;;;;;;;;;;;;;;;19.45;58.23;98735.03;2076783;28;19985;-54
2023/03/28 00:16:02;;;;;;;;;;;;;;;19.43;58.07;98739.78;2079333;28;19998;-50
2023/03/28 00:17:06;;;;;;;;;;;;;;;19.43;58.20;98732.53;2077453;28;19986;-50
2023/03/28 00:18:10;;;;;;;;;;;;;;;19.45;58.07;98736.91;2083259;28;19925;-56
2023/03/28 00:19:11;;;;;;;;;;;;;;;19.43;58.02;98737.09;2082547;28;19935;-54
2023/03/28 00:20:13;;;;;;;;;;;;;;;19.45;58.00;98745.78;2081196;28;19933;-55
2023/03/28 00:21:18;;;;;;;;;;;;;;;19.45;58.34;98745.78;2083549;27;20268;-54
2023/03/28 00:22:21;;;;;;;;;;;;;;;19.42;57.92;98747.03;2081866;28;20552;-51
2023/03/28 00:23:21;;;;;;;;;;;;;;;19.42;58.31;98752.41;2084515;28;20011;-54
2023/03/28 00:24:23;;;;;;;;;;;;;;;19.41;58.11;98763.38;2083908;28;19929;-54
2023/03/28 00:25:23;;;;;;;;;;;;;;;19.42;58.06;98765.84;2083959;28;19932;-55
2023/03/28 00:26:25;;;;;;;;;;;;;;;19.41;57.85;98764.19;2079608;28;19932;-51
2023/03/28 00:27:27;;;;;;;;;;;;;;;19.41;58.29;98763.38;2081115;28;19940;-53
2023/03/28 00:28:29;;;;;;;;;;;;;;;19.42;57.86;98767.72;2077342;28;19928;-56
2023/03/28 00:29:30;;;;;;;;;;;;;;;19.40;58.08;98770.59;2077083;28;19940;-54
2023/03/28 00:30:31;;;;;;;;;;;;;;;19.39;58.05;98765.44;2077905;28;19940;-54
2023/03/28 00:31:33;;;;;;;;;;;;;;;19.40;58.04;98769.78;2079143;28;19936;-53
2023/03/28 00:32:35;;;;;;;;;;;;;;;19.40;57.83;98785.91;2075794;28;19939;-53
2023/03/28 00:33:35;;;;;;;;;;;;;;;19.39;57.97;98782.41;2076208;28;19928;-58
2023/03/28 00:34:37;;;;;;;;;;;;;;;19.38;57.65;98780.72;2078316;28;20006;-55
2023/03/28 00:35:37;;;;;;;;;;;;;;;19.39;57.97;98784.28;2079245;28;20025;-54
2023/03/28 00:36:40;;;;;;;;;;;;;;;19.38;58.00;98790.66;2077131;28;20010;-55
2023/03/28 00:37:44;;;;;;;;;;;;;;;19.36;57.67;98788.22;2075369;28;19975;-57
2023/03/28 00:38:46;;;;;;;;;;;;;;;19.37;58.00;98780.97;2078902;28;19929;-52
2023/03/28 00:39:49;;;;;;;;;;;;;;;19.36;57.88;98793.59;2078030;28;19924;-54
2023/03/28 00:40:54;;;;;;;;;;;;;;;19.36;57.59;98790.91;2076449;28;19975;-54
2023/03/28 00:41:56;;;;;;;;;;;;;;;19.35;57.85;98793.78;2071843;28;20014;-53
2023/03/28 00:42:56;;;;;;;;;;;;;;;19.34;57.77;98795.63;2079616;28;19936;-53
2023/03/28 00:43:58;;;;;;;;;;;;;;;19.34;58.07;98798.31;2085232;28;19933;-52
2023/03/28 00:44:59;;;;;;;;;;;;;;;19.31;57.50;98804.13;2083595;28;19958;-53
2023/03/28 00:46:00;;;;;;;;;;;;;;;19.29;58.39;98795.41;2082688;28;19932;-54
2023/03/28 00:47:01;;;;;;;;;;;;;;;19.31;57.76;98792.53;2084015;28;19993;-54
2023/03/28 00:48:07;;;;;;;;;;;;;;;19.30;57.88;98801.63;2085735;28;19970;-54
2023/03/28 00:49:11;;;;;;;;;;;;;;;19.31;57.68;98804.13;2083635;28;20485;-54
2023/03/28 00:50:18;;;;;;;;;;;;;;;19.29;57.88;98800.78;2082476;28;20020;-54
2023/03/28 00:51:23;;;;;;;;;;;;;;;19.30;58.17;98798.94;2085357;27;19933;-55
2023/03/28 00:52:28;;;;;;;;;;;;;;;19.28;58.16;98804.53;2082765;28;21064;-54
2023/03/28 00:53:30;;;;;;;;;;;;;;;19.27;57.79;98805.53;2085047;28;19924;-55
2023/03/28 00:54:34;;;;;;;;;;;;;;;19.26;58.06;98806.59;2083240;28;20043;-55
2023/03/28 00:55:35;;;;;;;;;;;;;;;19.27;57.87;98807.41;2082052;28;19925;-55
2023/03/28 00:56:37;;;;;;;;;;;;;;;19.26;57.76;98803.06;2080221;28;19940;-55
2023/03/28 00:57:39;;;;;;;;;;;;;;;19.25;57.96;98807.63;2084230;28;19932;-55
2023/03/28 00:58:42;;;;;;;;;;;;;;;19.24;57.86;98810.50;2083864;28;19935;-54
2023/03/28 00:59:43;;;;;;;;;;;;;;;19.22;58.06;98810.69;2083314;28;19929;-53
2023/03/28 01:00:45;;;;;;;;;;;;;;;19.24;57.96;98810.50;2076153;28;19940;-56
2023/03/28 01:01:46;;;;;;;;;;;;;;;19.25;57.99;98814.84;2081498;28;19933;-57
2023/03/28 01:02:51;;;;;;;;;;;;;;;19.20;57.65;98815.47;2081726;28;19979;-53
2023/03/28 01:03:55;;;;;;;;;;;;;;;19.19;58.11;98822.72;2083034;28;19932;-54
2023/03/28 01:04:58;;;;;;;;;;;;;;;19.22;57.64;98821.44;2079273;28;20031;-54
2023/03/28 01:06:00;;;;;;;;;;;;;;;19.20;57.71;98823.53;2082791;28;19931;-52
2023/03/28 01:07:03;;;;;;;;;;;;;;;19.19;57.84;98822.72;2076427;28;19929;-56
2023/03/28 01:08:06;;;;;;;;;;;;;;;19.20;57.90;98829.75;2078724;28;20104;-54
2023/03/28 01:09:10;;;;;;;;;;;;;;;19.19;57.75;98829.94;2085331;28;20006;-54
2023/03/28 01:10:10;;;;;;;;;;;;;;;19.18;58.00;98830.97;2084278;28;19929;-54
2023/03/28 01:11:13;;;;;;;;;;;;;;;19.18;57.60;98826.41;2076186;28;19939;-52
2023/03/28 01:12:15;;;;;;;;;;;;;;;19.18;57.85;98830.97;2082880;28;20016;-55
2023/03/28 01:13:17;;;;;;;;;;;;;;;19.17;57.66;98829.31;2078187;28;19967;-53
2023/03/28 01:14:20;;;;;;;;;;;;;;;19.16;57.96;98835.72;2085220;28;19929;-54
2023/03/28 01:15:21;;;;;;;;;;;;;;;19.16;57.84;98827.66;2080323;28;19929;-56
2023/03/28 01:16:22;;;;;;;;;;;;;;;19.14;57.96;98832.41;2086981;28;20482;-55
2023/03/28 01:17:24;;;;;;;;;;;;;;;19.15;58.03;98829.50;2082775;28;19936;-55
2023/03/28 01:18:25;;;;;;;;;;;;;;;19.14;57.73;98830.56;2084961;28;20382;-56
2023/03/28 01:19:34;;;;;;;;;;;;;;;19.13;57.56;98839.63;2083367;28;19976;-56
2023/03/28 01:20:48;;;;;;;;;;;;;;;19.13;57.91;98836.13;2083841;28;19936;-55
2023/03/28 01:22:12;;;;;;;;;;;;;;;19.08;57.81;98831.34;2081976;28;20340;-52
2023/03/28 01:23:35;;;;;;;;;;;;;;;19.10;57.81;98833.84;2067415;28;19932;-54
2023/03/28 01:24:57;;;;;;;;;;;;;;;19.08;58.17;98842.09;2075314;28;20205;-55
2023/03/28 01:26:19;;;;;;;;;;;;;;;19.07;57.93;98837.75;2079918;28;19968;-56
2023/03/28 01:27:24;;;;;;;;;;;;;;;19.08;57.61;98841.28;2081369;28;20433;-55
2023/03/28 01:28:42;;;;;;;;;;;;;;;19.07;58.14;98855.75;2082624;28;19925;-54
2023/03/28 01:30:11;;;;;;;;;;;;;;;19.07;57.75;98847.69;2081576;28;19932;-55
2023/03/28 01:31:27;;;;;;;;;;;;;;;19.03;57.59;98849.97;2081642;28;20842;-56
2023/03/28 01:32:40;;;;;;;;;;;;;;;19.05;57.99;98852.44;2081095;28;20025;-55
2023/03/28 01:33:52;;;;;;;;;;;;;;;19.05;57.76;98849.75;2084666;28;20405;-54
2023/03/28 01:35:05;;;;;;;;;;;;;;;19.02;57.66;98859.03;2079236;28;19928;-55
2023/03/28 01:36:27;;;;;;;;;;;;;;;19.01;57.63;98856.56;2078364;28;19929;-55
2023/03/28 01:37:35;;;;;;;;;;;;;;;19.02;57.89;98859.03;2079431;28;19985;-55
2023/03/28 01:38:38;;;;;;;;;;;;;;;19.03;57.45;98858.03;2086099;28;20337;-55
2023/03/28 01:39:50;;;;;;;;;;;;;;;19.00;57.53;98858.44;2082994;28;20353;-54
2023/03/28 01:40:54;;;;;;;;;;;;;;;19.01;57.50;98859.25;2082788;28;19948;-57
2023/03/28 01:42:01;;;;;;;;;;;;;;;19.03;57.68;98865.22;2081434;28;20011;-54
2023/03/28 01:43:06;;;;;;;;;;;;;;;19.03;57.73;98859.84;2080488;28;19932;-54
2023/03/28 01:44:10;;;;;;;;;;;;;;;19.00;57.42;98862.94;2082694;28;19932;-54
2023/03/28 01:45:16;;;;;;;;;;;;;;;19.00;57.49;98860.25;2080988;28;19933;-55
2023/03/28 01:46:21;;;;;;;;;;;;;;;19.01;57.24;98867.31;2079942;28;20594;-53
2023/03/28 01:47:25;;;;;;;;;;;;;;;18.99;57.86;98867.50;2081515;28;19932;-54
2023/03/28 01:48:32;;;;;;;;;;;;;;;19.00;57.56;98871.88;2086732;28;19935;-54
2023/03/28 01:49:37;;;;;;;;;;;;;;;18.97;57.43;98873.09;2083392;28;19924;-51
2023/03/28 01:50:42;;;;;;;;;;;;;;;18.96;57.90;98866.03;2086063;28;21347;-53
2023/03/28 01:51:49;;;;;;;;;;;;;;;18.97;57.51;98870.41;2083142;28;20051;-53
2023/03/28 01:52:56;;;;;;;;;;;;;;;18.97;57.77;98875.78;2086265;28;19940;-54
2023/03/28 01:54:00;;;;;;;;;;;;;;;18.96;57.72;98874.09;2083305;28;19928;-55
2023/03/28 01:55:04;;;;;;;;;;;;;;;18.97;57.37;98870.41;2082903;28;20826;-54
2023/03/28 01:56:11;;;;;;;;;;;;;;;18.97;57.66;98867.72;2082359;28;21025;-51
2023/03/28 01:57:14;;;;;;;;;;;;;;;18.95;57.84;98874.31;2082126;28;19929;-54
2023/03/28 01:58:21;;;;;;;;;;;;;;;18.97;57.66;98875.78;2083502;28;19932;-56
2023/03/28 01:59:25;;;;;;;;;;;;;;;18.96;57.30;98876.78;2082502;28;19932;-53
2023/03/28 02:00:28;;;;;;;;;;;;;;;18.95;57.57;98880.53;2081411;28;19932;-54
2023/03/28 02:01:35;;;;;;;;;;;;;;;18.94;57.62;98868.13;2082990;28;19932;-51
2023/03/28 02:02:39;;;;;;;;;;;;;;;18.91;57.64;98879.25;2088531;28;19935;-53
2023/03/28 02:03:41;;;;;;;;;;;;;;;18.91;57.52;98883.78;2084687;28;19932;-54
2023/03/28 02:04:45;;;;;;;;;;;;;;;18.92;57.56;98880.94;2082885;28;19956;-54
2023/03/28 02:05:47;;;;;;;;;;;;;;;18.93;57.68;98881.75;2084060;28;20401;-57
2023/03/28 02:06:51;;;;;;;;;;;;;;;18.92;57.41;98885.47;2086179;28;19971;-53
2023/03/28 02:07:53;;;;;;;;;;;;;;;18.88;57.51;98885.03;2081252;28;20394;-54
2023/03/28 02:08:55;;;;;;;;;;;;;;;18.89;57.68;98886.69;2081039;28;20200;-54
2023/03/28 02:09:56;;;;;;;;;;;;;;;18.89;57.59;98891.25;2084124;28;19933;-54
2023/03/28 02:10:58;;;;;;;;;;;;;;;18.89;57.41;98886.69;2086122;28;19928;-55
2023/03/28 02:12:02;;;;;;;;;;;;;;;18.87;57.68;98883.38;2083483;28;19932;-54
2023/03/28 02:13:06;;;;;;;;;;;;;;;18.87;57.53;98891.44;2086157;27;19940;-53
2023/03/28 02:14:09;;;;;;;;;;;;;;;18.89;57.67;98892.06;2085032;28;20019;-55
2023/03/28 02:15:15;;;;;;;;;;;;;;;18.86;57.45;98895.16;2081157;28;20453;-51
2023/03/28 02:16:17;;;;;;;;;;;;;;;18.85;57.32;98903.41;2085439;28;20011;-57
2023/03/28 02:17:20;;;;;;;;;;;;;;;18.87;57.70;98901.38;2087373;28;19935;-54
2023/03/28 02:18:23;;;;;;;;;;;;;;;18.85;57.47;98901.53;2084201;28;20352;-53
2023/03/28 02:19:25;;;;;;;;;;;;;;;18.84;57.43;98905.28;2084522;28;19936;-53
2023/03/28 02:20:27;;;;;;;;;;;;;;;18.84;57.54;98902.59;2085748;28;20025;-54
2023/03/28 02:21:31;;;;;;;;;;;;;;;18.85;57.73;98903.41;2083364;28;20524;-57
2023/03/28 02:22:34;;;;;;;;;;;;;;;18.81;57.43;98907.53;2083689;28;20333;-54
2023/03/28 02:23:39;;;;;;;;;;;;;;;18.84;57.57;98907.13;2082398;28;20015;-54
2023/03/28 02:24:39;;;;;;;;;;;;;;;18.82;57.16;98910.00;2084210;28;19939;-51
2023/03/28 02:25:41;;;;;;;;;;;;;;;18.82;57.56;98907.31;2084119;28;19960;-54
2023/03/28 02:26:42;;;;;;;;;;;;;;;18.81;57.45;98911.03;2086792;28;19952;-52
2023/03/28 02:27:44;;;;;;;;;;;;;;;18.81;57.49;98907.53;2085911;28;19979;-53
2023/03/28 02:28:47;;;;;;;;;;;;;;;18.81;57.79;98911.03;2086338;28;20673;-51
2023/03/28 02:29:49;;;;;;;;;;;;;;;18.81;57.44;98904.84;2086086;28;19936;-54
2023/03/28 02:30:50;;;;;;;;;;;;;;;18.80;57.77;98913.91;2087630;28;19939;-56
2023/03/28 02:31:52;;;;;;;;;;;;;;;18.77;57.70;98912.47;2084095;28;19965;-57
2023/03/28 02:32:57;;;;;;;;;;;;;;;18.78;57.46;98914.13;2084084;28;19985;-55
2023/03/28 02:34:00;;;;;;;;;;;;;;;18.77;57.57;98912.47;2084271;28;19928;-54
2023/03/28 02:35:03;;;;;;;;;;;;;;;18.80;57.26;98906.69;2082938;28;20310;-54
2023/03/28 02:36:22;;;;;;;;;;;;;;;18.80;57.67;98912.06;2079688;27;19932;-53
2023/03/28 02:37:28;;;;;;;;;;;;;;;18.77;57.67;98919.69;2082731;28;20366;-52
2023/03/28 02:38:35;;;;;;;;;;;;;;;18.75;57.68;98915.34;2079703;28;19938;-54
2023/03/28 02:39:50;;;;;;;;;;;;;;;18.74;57.68;98921.75;2083139;28;19994;-54
2023/03/28 02:40:54;;;;;;;;;;;;;;;18.76;57.70;98916.19;2080208;28;19932;-55
2023/03/28 02:42:02;;;;;;;;;;;;;;;18.74;57.26;98924.44;2082035;28;19924;-52
2023/03/28 02:43:11;;;;;;;;;;;;;;;18.73;57.42;98925.44;2085144;28;19974;-56
2023/03/28 02:44:24;;;;;;;;;;;;;;;18.73;57.85;98924.59;2088416;28;19971;-54
2023/03/28 02:45:42;;;;;;;;;;;;;;;18.73;57.57;98919.22;2082572;28;20008;-54
2023/03/28 02:46:51;;;;;;;;;;;;;;;18.72;57.47;98922.94;2051236;28;20098;-54
2023/03/28 02:48:00;;;;;;;;;;;;;;;18.73;57.66;98925.44;2084076;28;19974;-54
2023/03/28 02:49:17;;;;;;;;;;;;;;;18.73;57.32;98929.97;2078745;28;20459;-55
2023/03/28 02:50:22;;;;;;;;;;;;;;;18.73;57.59;98935.34;2077841;28;19986;-54
2023/03/28 02:51:30;;;;;;;;;;;;;;;18.72;57.60;98931.84;2083322;27;20322;-53
2023/03/28 02:52:37;;;;;;;;;;;;;;;18.72;57.44;98941.75;2083837;28;19932;-54
2023/03/28 02:53:43;;;;;;;;;;;;;;;18.70;57.33;98939.25;2088805;28;19939;-54
2023/03/28 02:54:48;;;;;;;;;;;;;;;18.70;57.44;98936.56;2083494;28;19924;-55
2023/03/28 02:55:54;;;;;;;;;;;;;;;18.70;57.19;98944.63;2082026;28;19928;-55
2023/03/28 02:57:00;;;;;;;;;;;;;;;18.69;57.16;98951.06;2083205;28;19932;-55
2023/03/28 02:58:09;;;;;;;;;;;;;;;18.70;57.42;98943.81;2085384;28;19955;-54
2023/03/28 02:59:14;;;;;;;;;;;;;;;18.67;57.34;98950.41;2081835;28;20015;-54
2023/03/28 03:00:17;;;;;;;;;;;;;;;18.69;57.61;98951.06;2082149;28;19985;-54
2023/03/28 03:01:18;;;;;;;;;;;;;;;18.68;57.39;98952.06;2080450;28;20980;-55
2023/03/28 03:02:20;;;;;;;;;;;;;;;18.67;57.56;98954.97;2087322;28;19929;-55
2023/03/28 03:03:22;;;;;;;;;;;;;;;18.66;57.51;98955.97;2083955;28;19983;-53
2023/03/28 03:04:23;;;;;;;;;;;;;;;18.68;57.65;98959.28;2081301;28;19968;-54
2023/03/28 03:05:24;;;;;;;;;;;;;;;18.64;57.53;98974.97;2082790;28;19928;-54
2023/03/28 03:06:26;;;;;;;;;;;;;;;18.64;57.55;98974.16;2075262;28;19979;-54
2023/03/28 03:07:26;;;;;;;;;;;;;;;18.64;57.31;98974.16;2082289;28;20386;-55
2023/03/28 03:08:28;;;;;;;;;;;;;;;18.65;57.76;98973.94;2081457;28;19936;-55
2023/03/28 03:09:29;;;;;;;;;;;;;;;18.63;57.27;98984.03;2085525;28;20023;-54
2023/03/28 03:10:30;;;;;;;;;;;;;;;18.63;57.08;98977.84;2078478;28;19940;-54
2023/03/28 03:11:32;;;;;;;;;;;;;;;18.64;57.15;98984.91;2086077;28;19924;-54
2023/03/28 03:12:34;;;;;;;;;;;;;;;18.64;57.34;98983.03;2083662;28;19936;-54
2023/03/28 03:13:35;;;;;;;;;;;;;;;18.65;57.18;98986.56;2082321;28;20037;-53
2023/03/28 03:14:37;;;;;;;;;;;;;;;18.66;57.22;98982.84;2077592;28;21299;-54
2023/03/28 03:15:40;;;;;;;;;;;;;;;18.69;57.38;98990.50;2087941;28;20074;-54
2023/03/28 03:16:41;;;;;;;;;;;;;;;18.71;57.00;98994.66;2081758;28;20359;-55
2023/03/28 03:17:42;;;;;;;;;;;;;;;18.73;57.16;98989.09;2080968;28;19929;-55
2023/03/28 03:18:44;;;;;;;;;;;;;;;18.73;57.31;98997.16;2082071;28;20517;-54
2023/03/28 03:19:44;;;;;;;;;;;;;;;18.75;57.05;99003.22;2084796;28;19925;-51
2023/03/28 03:20:46;;;;;;;;;;;;;;;18.73;56.91;99000.66;2081767;28;20917;-51
2023/03/28 03:21:48;;;;;;;;;;;;;;;18.73;56.67;98999.84;2081273;28;20467;-55
2023/03/28 03:22:49;;;;;;;;;;;;;;;18.73;57.56;99000.66;2079758;28;19936;-54
2023/03/28 03:23:50;;;;;;;;;;;;;;;18.73;56.79;98997.16;2082407;28;19971;-51
2023/03/28 03:24:52;;;;;;;;;;;;;;;18.73;56.89;98997.16;2087463;28;19941;-52
2023/03/28 03:25:52;;;;;;;;;;;;;;;18.72;56.52;98990.09;2082347;28;20422;-57
2023/03/28 03:26:55;;;;;;;;;;;;;;;18.74;56.73;99001.53;2081662;28;19932;-51
2023/03/28 03:27:55;;;;;;;;;;;;;;;18.73;56.79;98995.28;2081273;28;19936;-54
2023/03/28 03:28:57;;;;;;;;;;;;;;;18.75;56.56;98993.28;2082153;28;20371;-54
2023/03/28 03:29:57;;;;;;;;;;;;;;;18.75;56.25;98993.28;2084732;28;19970;-52
2023/03/28 03:30:59;;;;;;;;;;;;;;;18.76;56.54;99002.16;2081184;28;20390;-54
2023/03/28 03:32:00;;;;;;;;;;;;;;;18.75;56.35;98998.66;2083452;28;19925;-54
2023/03/28 03:33:01;;;;;;;;;;;;;;;18.79;56.23;98999.09;2086249;28;19925;-52
2023/03/28 03:34:02;;;;;;;;;;;;;;;18.80;55.79;99000.75;2086061;28;19928;-54
2023/03/28 03:35:03;;;;;;;;;;;;;;;18.81;55.79;98999.72;2084001;28;19999;-54
2023/03/28 03:36:04;;;;;;;;;;;;;;;18.85;55.57;98998.28;2081319;28;20045;-55
2023/03/28 03:37:07;;;;;;;;;;;;;;;18.88;55.58;99003.28;2083418;28;19932;-54
2023/03/28 03:38:08;;;;;;;;;;;;;;;18.91;55.64;99002.06;2084302;28;19933;-55
2023/03/28 03:39:09;;;;;;;;;;;;;;;18.95;55.19;99012.22;2081322;28;20010;-53
2023/03/28 03:40:10;;;;;;;;;;;;;;;18.99;55.15;99007.28;2082235;28;19929;-54
2023/03/28 03:41:11;;;;;;;;;;;;;;;19.03;55.20;99010.41;2080092;28;20449;-53
2023/03/28 03:42:13;;;;;;;;;;;;;;;19.05;54.90;99005.66;2084322;28;20060;-52
2023/03/28 03:43:14;;;;;;;;;;;;;;;19.11;54.85;99013.78;2083000;28;20381;-54
2023/03/28 03:44:15;;;;;;;;;;;;;;;19.16;54.61;99013.16;2081915;28;19925;-53
2023/03/28 03:45:16;;;;;;;;;;;;;;;19.21;54.83;99016.09;2081957;28;21090;-53
2023/03/28 03:46:17;;;;;;;;;;;;;;;19.25;54.98;99013.84;2081893;28;19932;-54
2023/03/28 03:47:18;;;;;;;;;;;;;;;19.28;54.92;99019.69;2077603;28;19970;-53
2023/03/28 03:48:19;;;;;;;;;;;;;;;19.33;54.51;99016.38;2080100;28;19933;-55
2023/03/28 03:49:20;;;;;;;;;;;;;;;19.38;54.80;99016.59;2081942;28;20018;-54
2023/03/28 03:50:21;;;;;;;;;;;;;;;19.38;54.63;99017.44;2081072;28;19968;-54
2023/03/28 03:51:22;;;;;;;;;;;;;;;19.43;54.80;99016.84;2077908;28;19932;-54
2023/03/28 03:52:23;;;;;;;;;;;;;;;19.48;54.62;99021.63;2079441;28;20629;-54
2023/03/28 03:53:24;;;;;;;;;;;;;;;19.55;54.50;99022.47;2085268;28;20050;-53
2023/03/28 03:54:25;;;;;;;;;;;;;;;19.58;54.22;99027.47;2080669;28;20042;-54
2023/03/28 03:55:26;;;;;;;;;;;;;;;19.59;54.21;99026.44;2081243;28;20427;-54
2023/03/28 03:56:27;;;;;;;;;;;;;;;19.61;54.28;99029.75;2082084;28;19981;-53
2023/03/28 03:57:30;;;;;;;;;;;;;;;19.62;54.29;99026.03;2080922;28;20425;-54
2023/03/28 03:58:30;;;;;;;;;;;;;;;19.63;54.37;99031.22;2082480;28;19928;-52
2023/03/28 03:59:31;;;;;;;;;;;;;;;19.66;54.02;99037.25;2082247;28;19931;-51
2023/03/28 04:00:32;;;;;;;;;;;;;;;19.67;54.43;99036.22;2080081;28;20532;-52
2023/03/28 04:01:33;;;;;;;;;;;;;;;19.68;53.98;99036.03;2080713;28;19932;-52
2023/03/28 04:02:34;;;;;;;;;;;;;;;19.69;54.45;99034.97;2080600;28;19928;-54
2023/03/28 04:03:36;;;;;;;;;;;;;;;19.71;54.24;99040.19;2080279;28;20020;-55
2023/03/28 04:04:39;;;;;;;;;;;;;;;19.72;54.10;99042.66;2079599;28;20009;-54
2023/03/28 04:05:40;;;;;;;;;;;;;;;19.74;53.99;99043.28;2083066;28;19935;-55
2023/03/28 04:06:41;;;;;;;;;;;;;;;19.75;54.20;99044.97;2075986;28;19928;-54
2023/03/28 04:07:42;;;;;;;;;;;;;;;19.77;54.13;99044.75;2079710;28;20433;-55
2023/03/28 04:08:43;;;;;;;;;;;;;;;19.76;54.09;99046.63;2083722;28;19929;-55
2023/03/28 04:09:44;;;;;;;;;;;;;;;19.77;53.77;99045.56;2080389;28;19978;-55
2023/03/28 04:10:45;;;;;;;;;;;;;;;19.78;53.81;99044.56;2076716;28;20363;-54
2023/03/28 04:11:46;;;;;;;;;;;;;;;19.79;54.15;99054.28;2077682;28;19935;-55
2023/03/28 04:12:48;;;;;;;;;;;;;;;19.80;53.96;99053.25;2078551;28;19936;-56
2023/03/28 04:13:50;;;;;;;;;;;;;;;19.83;53.69;99055.53;2074590;28;19932;-57
2023/03/28 04:14:50;;;;;;;;;;;;;;;19.85;53.96;99060.72;2079196;28;19982;-54
2023/03/28 04:15:52;;;;;;;;;;;;;;;19.85;53.92;99053.47;2076674;28;19954;-56
2023/03/28 04:16:52;;;;;;;;;;;;;;;19.85;53.66;99058.03;2078622;27;19928;-56
2023/03/28 04:17:55;;;;;;;;;;;;;;;19.84;53.96;99059.91;2076175;28;19955;-55
2023/03/28 04:18:56;;;;;;;;;;;;;;;19.86;53.60;99059.69;2084197;27;19984;-53
2023/03/28 04:19:58;;;;;;;;;;;;;;;19.88;53.55;99059.50;2081931;28;20995;-50
2023/03/28 04:21:00;;;;;;;;;;;;;;;19.89;53.69;99058.44;2078165;28;19933;-57
2023/03/28 04:22:03;;;;;;;;;;;;;;;19.88;53.78;99071.09;2078769;28;19933;-56
2023/03/28 04:23:04;;;;;;;;;;;;;;;19.87;53.57;99066.75;2082950;28;20413;-55
2023/03/28 04:24:06;;;;;;;;;;;;;;;19.88;53.89;99067.56;2083396;28;19935;-55
2023/03/28 04:25:07;;;;;;;;;;;;;;;19.88;53.76;99067.56;2079686;28;19929;-50
2023/03/28 04:26:08;;;;;;;;;;;;;;;19.87;53.64;99061.38;2080970;28;19928;-51
2023/03/28 04:27:09;;;;;;;;;;;;;;;19.90;53.78;99068.22;2078323;28;19940;-55
2023/03/28 04:28:14;;;;;;;;;;;;;;;19.90;53.70;99073.59;2080851;28;20520;-55
2023/03/28 04:29:16;;;;;;;;;;;;;;;19.91;53.68;99075.25;2081176;28;19925;-57
2023/03/28 04:30:17;;;;;;;;;;;;;;;19.89;53.82;99072.75;2081610;28;19945;-56
2023/03/28 04:31:18;;;;;;;;;;;;;;;19.89;53.64;99074.59;2081444;28;19928;-57
2023/03/28 04:32:20;;;;;;;;;;;;;;;19.90;53.50;99076.28;2081055;28;19940;-56
2023/03/28 04:33:23;;;;;;;;;;;;;;;19.90;53.89;99074.41;2080606;28;20299;-55
2023/03/28 04:34:28;;;;;;;;;;;;;;;19.90;53.62;99077.13;2079761;28;19936;-54
2023/03/28 04:35:29;;;;;;;;;;;;;;;19.92;53.70;99074.19;2082297;28;19933;-56
2023/03/28 04:36:31;;;;;;;;;;;;;;;19.90;53.60;99077.13;2080838;28;19929;-55
2023/03/28 04:37:31;;;;;;;;;;;;;;;19.92;53.68;99079.59;2078696;28;19932;-54
2023/03/28 04:38:34;;;;;;;;;;;;;;;19.92;53.62;99079.59;2077453;28;19929;-56
2023/03/28 04:39:35;;;;;;;;;;;;;;;19.91;53.77;99083.31;2080020;28;19940;-54
2023/03/28 04:40:38;;;;;;;;;;;;;;;19.92;53.68;99075.06;2076709;28;19932;-53
2023/03/28 04:41:40;;;;;;;;;;;;;;;19.92;53.53;99080.44;2082365;28;19933;-52
2023/03/28 04:42:40;;;;;;;;;;;;;;;19.92;53.72;99079.59;2083254;28;19960;-55
2023/03/28 04:43:43;;;;;;;;;;;;;;;19.92;53.70;99091.22;2079121;28;19925;-53
2023/03/28 04:44:44;;;;;;;;;;;;;;;19.92;53.44;99084.97;2085199;28;19977;-55
2023/03/28 04:45:45;;;;;;;;;;;;;;;19.93;53.59;99084.78;2082426;28;20536;-55
2023/03/28 04:46:47;;;;;;;;;;;;;;;19.93;53.35;99092.03;2082297;28;19956;-54
2023/03/28 04:47:49;;;;;;;;;;;;;;;19.92;53.45;99091.22;2078072;28;22279;-51
2023/03/28 04:48:49;;;;;;;;;;;;;;;19.92;53.63;99095.75;2079735;28;19925;-52
2023/03/28 04:49:51;;;;;;;;;;;;;;;19.92;53.58;99095.75;2085651;28;20594;-54
2023/03/28 04:50:51;;;;;;;;;;;;;;;19.94;53.27;99099.06;2084085;28;19928;-55
2023/03/28 04:51:53;;;;;;;;;;;;;;;19.95;53.35;99103.44;2082581;28;19938;-55
2023/03/28 04:52:53;;;;;;;;;;;;;;;19.94;53.06;99105.28;2084280;28;20853;-52
2023/03/28 04:53:55;;;;;;;;;;;;;;;19.96;53.31;99107.78;2084405;28;20018;-54
2023/03/28 04:54:55;;;;;;;;;;;;;;;19.96;53.26;99108.59;2082281;28;19925;-55
2023/03/28 04:55:58;;;;;;;;;;;;;;;19.97;53.20;99104.88;2083419;28;20406;-52
2023/03/28 04:56:59;;;;;;;;;;;;;;;19.98;53.12;99105.72;2084408;28;19936;-55
2023/03/28 04:58:00;;;;;;;;;;;;;;;19.97;53.35;99109.44;2085360;28;19925;-55
2023/03/28 04:59:02;;;;;;;;;;;;;;;19.98;53.29;99105.72;2080054;28;19932;-55
2023/03/28 05:00:08;;;;;;;;;;;;;;;19.97;53.14;99107.56;2083856;28;19932;-54
2023/03/28 05:01:09;;;;;;;;;;;;;;;19.97;53.08;99110.25;2088813;28;19930;-55
2023/03/28 05:02:10;;;;;;;;;;;;;;;19.97;52.95;99117.50;2078784;28;20002;-53
2023/03/28 05:03:12;;;;;;;;;;;;;;;19.97;52.84;99110.25;2086145;28;19924;-54
2023/03/28 05:04:14;;;;;;;;;;;;;;;19.98;53.38;99117.31;2080218;28;19939;-54
2023/03/28 05:05:14;;;;;;;;;;;;;;;19.98;53.14;99111.13;2083199;28;19970;-53
2023/03/28 05:06:16;;;;;;;;;;;;;;;19.97;53.28;99115.66;2080905;28;19933;-54
2023/03/28 05:07:17;;;;;;;;;;;;;;;19.98;53.17;99116.50;2083142;28;19925;-55
2023/03/28 05:08:21;;;;;;;;;;;;;;;19.98;53.24;99117.31;2082090;28;19928;-54
2023/03/28 05:09:22;;;;;;;;;;;;;;;19.97;53.05;99120.19;2082132;28;19929;-57
2023/03/28 05:10:23;;;;;;;;;;;;;;;19.97;52.84;99122.91;2079243;28;19939;-52
2023/03/28 05:11:24;;;;;;;;;;;;;;;19.98;52.92;99127.28;2083462;28;19936;-53
2023/03/28 05:12:25;;;;;;;;;;;;;;;19.98;53.01;99127.28;2084513;28;19933;-54
2023/03/28 05:13:25;;;;;;;;;;;;;;;19.96;53.33;99124.75;2083792;28;19929;-57
2023/03/28 05:14:28;;;;;;;;;;;;;;;19.96;52.89;99135.53;2083783;28;19982;-54
2023/03/28 05:15:29;;;;;;;;;;;;;;;19.95;52.99;99128.50;2079616;28;19933;-55
2023/03/28 05:16:30;;;;;;;;;;;;;;;19.95;53.08;99138.44;2082412;28;19958;-56
2023/03/28 05:17:31;;;;;;;;;;;;;;;19.94;53.34;99137.59;2084024;28;19936;-52
2023/03/28 05:18:32;;;;;;;;;;;;;;;19.93;53.30;99133.25;2086593;28;20487;-52
2023/03/28 05:19:33;;;;;;;;;;;;;;;19.95;53.25;99143.81;2082381;28;19932;-54
2023/03/28 05:20:35;;;;;;;;;;;;;;;19.96;52.90;99134.72;2082269;28;19999;-54
2023/03/28 05:21:35;;;;;;;;;;;;;;;19.93;53.01;99144.00;2082756;28;24022;-54
2023/03/28 05:22:37;;;;;;;;;;;;;;;19.95;53.09;99141.13;2087952;28;19933;-54
2023/03/28 05:23:37;;;;;;;;;;;;;;;19.94;53.24;99144.84;2085488;28;19932;-52
2023/03/28 05:24:39;;;;;;;;;;;;;;;19.93;53.04;99151.25;2085875;28;22023;-55
2023/03/28 05:25:39;;;;;;;;;;;;;;;19.93;53.12;99145.88;2084647;28;19958;-54
2023/03/28 05:26:41;;;;;;;;;;;;;;;19.92;53.36;99145.06;2083472;28;19933;-55
2023/03/28 05:27:41;;;;;;;;;;;;;;;19.92;53.10;99154.97;2084679;28;20383;-53
2023/03/28 05:28:43;;;;;;;;;;;;;;;19.92;52.91;99144.19;2084885;28;19975;-55
2023/03/28 05:29:45;;;;;;;;;;;;;;;19.92;53.11;99146.88;2085799;28;19973;-54